createdAt,value
2022-09-30T00:00:22.711Z,27.50
2022-09-30T00:05:24.389Z,27.80
2022-09-30T00:10:26.417Z,28.20
2022-09-30T00:15:28.527Z,32.20
2022-09-30T00:20:30.875Z,30.10
2022-09-30T00:25:32.917Z,30.30
2022-09-30T00:30:34.832Z,29.60
2022-09-30T00:35:43.535Z,32.90
2022-09-30T00:40:46.008Z,33.30
2022-09-30T00:45:58.006Z,35.10
2022-09-30T00:51:02.779Z,32.10
2022-09-30T00:56:17.237Z,32.30
2022-09-30T01:01:19.725Z,32.10
2022-09-30T01:06:23.299Z,33.70
2022-09-30T01:11:26.859Z,35.00
2022-09-30T01:17:06.829Z,34.00
2022-09-30T01:22:23.870Z,34.50
2022-09-30T01:27:36.856Z,33.00
2022-09-30T01:32:45.213Z,32.80
2022-09-30T01:37:56.059Z,31.70
2022-09-30T01:43:11.776Z,35.50
2022-09-30T01:48:26.109Z,35.50
2022-09-30T01:53:39.634Z,36.70
2022-09-30T01:58:51.794Z,36.20
2022-09-30T02:04:01.908Z,31.30
2022-09-30T02:09:13.667Z,35.00
2022-09-30T02:14:28.331Z,30.80
2022-09-30T02:19:37.986Z,30.60
2022-09-30T02:24:41.186Z,31.90
2022-09-30T02:29:47.696Z,31.70
2022-09-30T02:34:55.498Z,31.30
2022-09-30T02:40:13.836Z,27.80
2022-09-30T02:45:22.705Z,28.60
2022-09-30T02:51:23.362Z,31.00
2022-09-30T02:56:41.303Z,31.80
2022-09-30T03:01:47.416Z,30.60
2022-09-30T03:06:49.675Z,27.50
2022-09-30T03:11:55.624Z,25.80
2022-09-30T03:17:36.644Z,26.30
2022-09-30T03:22:54.744Z,26.30
2022-09-30T03:28:22.876Z,26.60
2022-09-30T03:33:48.107Z,28.70
2022-09-30T03:39:13.305Z,26.10
2022-09-30T03:44:56.219Z,28.60
2022-09-30T03:50:02.861Z,27.30
2022-09-30T03:55:08.726Z,27.60
2022-09-30T04:00:13.281Z,27.40
2022-09-30T04:05:15.111Z,30.70
2022-09-30T04:10:16.936Z,31.50
2022-09-30T04:15:19.364Z,30.80
2022-09-30T04:20:21.065Z,32.50
2022-09-30T04:25:22.822Z,30.70
2022-09-30T04:30:27.172Z,27.70
2022-09-30T04:35:30.222Z,27.20
2022-09-30T04:40:32.278Z,27.50
2022-09-30T04:45:57.104Z,25.80
2022-09-30T04:51:00.501Z,30.00
2022-09-30T04:56:02.377Z,29.60
2022-09-30T05:01:13.187Z,26.60
2022-09-30T05:06:14.998Z,28.40
2022-09-30T05:11:19.290Z,28.80
2022-09-30T05:16:22.117Z,30.10
2022-09-30T05:21:23.806Z,30.20
2022-09-30T05:26:25.849Z,31.80
2022-09-30T05:31:28.043Z,29.80
2022-09-30T05:36:34.179Z,33.30
2022-09-30T05:41:36.044Z,31.40
2022-09-30T05:46:37.946Z,29.50
2022-09-30T05:51:40.775Z,29.60
2022-09-30T05:56:43.461Z,27.50
2022-09-30T06:01:45.693Z,27.30
2022-09-30T06:06:47.844Z,27.90
2022-09-30T06:11:49.570Z,29.10
2022-09-30T06:16:52.067Z,32.10
2022-09-30T06:21:54.079Z,29.80
2022-09-30T06:26:55.890Z,29.10
2022-09-30T06:31:58.146Z,30.40
2022-09-30T06:37:00.085Z,30.90
2022-09-30T06:42:01.999Z,27.20
2022-09-30T06:47:04.696Z,27.50
2022-09-30T06:52:09.573Z,28.00
2022-09-30T06:57:11.307Z,28.40
2022-09-30T07:02:13.443Z,29.70
2022-09-30T07:07:15.577Z,29.70
2022-09-30T07:12:18.240Z,33.20
2022-09-30T07:17:20.083Z,28.60
2022-09-30T07:22:36.045Z,30.90
2022-09-30T07:27:51.617Z,31.30
2022-09-30T07:32:53.715Z,32.90
2022-09-30T07:37:55.414Z,30.70
2022-09-30T07:42:58.504Z,29.70
2022-09-30T07:48:00.436Z,31.00
2022-09-30T07:53:09.052Z,28.60
2022-09-30T07:58:17.508Z,27.30
2022-09-30T08:03:19.310Z,28.40
2022-09-30T08:08:21.114Z,27.70
2022-09-30T08:13:23.365Z,23.20
2022-09-30T08:18:36.099Z,24.90
2022-09-30T08:23:44.522Z,25.40
2022-09-30T08:28:48.450Z,24.10
2022-09-30T08:33:50.950Z,24.60
2022-09-30T08:38:53.510Z,27.60
2022-09-30T08:44:16.434Z,32.70
2022-09-30T08:49:36.854Z,31.60
2022-09-30T08:54:43.514Z,35.20
2022-09-30T08:59:48.973Z,33.40
2022-09-30T09:05:00.789Z,32.00
2022-09-30T09:10:16.513Z,29.10
2022-09-30T09:15:37.753Z,26.80
2022-09-30T09:20:47.467Z,27.70
2022-09-30T09:25:53.059Z,29.40
2022-09-30T09:30:58.894Z,26.40
2022-09-30T09:36:03.600Z,27.30
2022-09-30T09:41:11.303Z,28.20
2022-09-30T09:46:28.142Z,24.80
2022-09-30T09:51:36.101Z,26.60
2022-09-30T09:56:38.007Z,28.40
2022-09-30T10:01:50.566Z,23.00
2022-09-30T10:06:54.431Z,32.10
2022-09-30T10:12:08.094Z,27.80
2022-09-30T10:17:22.178Z,24.70
2022-09-30T10:22:32.373Z,22.70
2022-09-30T10:27:36.935Z,22.90
2022-09-30T10:32:38.860Z,31.10
2022-09-30T10:37:53.219Z,31.30
2022-09-30T10:42:56.664Z,30.60
2022-09-30T10:48:14.275Z,27.80
2022-09-30T10:53:30.918Z,34.60
2022-09-30T10:58:48.605Z,31.50
2022-09-30T11:04:02.789Z,39.90
2022-09-30T11:09:33.456Z,26.00
2022-09-30T11:14:56.902Z,24.40
2022-09-30T11:20:10.693Z,26.80
2022-09-30T11:25:19.753Z,23.20
2022-09-30T11:30:38.034Z,18.10
2022-09-30T11:35:46.259Z,22.10
2022-09-30T11:40:53.702Z,23.90
2022-09-30T11:46:24.138Z,19.90
2022-09-30T11:51:32.203Z,33.00
2022-09-30T11:56:51.006Z,25.90
2022-09-30T12:01:54.568Z,22.30
2022-09-30T12:06:58.450Z,24.20
2022-09-30T12:12:02.203Z,22.00
2022-09-30T12:17:12.001Z,21.30
2022-09-30T12:22:41.810Z,20.10
2022-09-30T12:28:40.431Z,17.90
2022-09-30T12:34:09.173Z,15.80
2022-09-30T12:39:25.603Z,16.70
2022-09-30T12:44:51.331Z,19.90
2022-09-30T12:49:56.301Z,21.80
2022-09-30T12:55:36.001Z,17.00
2022-09-30T13:00:58.634Z,11.50
2022-09-30T13:06:06.668Z,13.40
2022-09-30T13:12:00.997Z,11.70
2022-09-30T13:17:25.026Z,13.70
2022-09-30T13:22:41.781Z,15.20
2022-09-30T13:27:45.636Z,14.70
2022-09-30T13:33:05.297Z,15.30
2022-09-30T13:38:13.560Z,14.90
2022-09-30T13:43:42.648Z,16.20
2022-09-30T13:49:19.622Z,15.60
2022-09-30T13:54:35.304Z,14.90
2022-09-30T13:59:59.196Z,24.50
2022-09-30T14:05:36.875Z,16.90
2022-09-30T14:11:11.899Z,17.10
2022-09-30T14:16:35.428Z,21.20
2022-09-30T14:21:49.723Z,17.90
2022-09-30T14:27:16.845Z,17.40
2022-09-30T14:32:46.316Z,23.30
2022-09-30T14:38:01.957Z,19.70
2022-09-30T14:43:13.441Z,23.70
2022-09-30T14:48:20.487Z,25.40
2022-09-30T14:53:28.973Z,30.30
2022-09-30T14:58:42.693Z,29.00
2022-09-30T15:04:15.102Z,25.70
2022-09-30T15:09:34.646Z,25.70
2022-09-30T15:14:50.747Z,31.70
2022-09-30T15:19:55.882Z,20.10
2022-09-30T15:25:04.892Z,19.50
2022-09-30T15:30:15.766Z,19.90
2022-09-30T15:35:21.905Z,19.10
2022-09-30T15:40:46.362Z,20.40
2022-09-30T15:45:50.652Z,20.10
2022-09-30T15:50:56.233Z,21.40
2022-09-30T15:56:22.601Z,21.50
2022-09-30T16:01:46.716Z,21.70
2022-09-30T16:06:58.794Z,21.60
2022-09-30T16:12:08.834Z,23.80
2022-09-30T16:17:19.533Z,24.90
2022-09-30T16:22:33.810Z,25.40
2022-09-30T16:27:36.079Z,28.70
2022-09-30T16:32:41.883Z,28.40
2022-09-30T16:37:44.425Z,29.20
2022-09-30T16:42:47.046Z,26.60
2022-09-30T16:47:50.614Z,29.50
2022-09-30T16:52:52.813Z,66.00
2022-09-30T16:57:59.620Z,49.20
2022-09-30T17:03:01.496Z,51.70
2022-09-30T17:08:03.485Z,49.70
2022-09-30T17:13:06.383Z,28.50
2022-09-30T17:18:10.474Z,25.90
2022-09-30T17:23:13.113Z,26.00
2022-09-30T17:28:16.063Z,26.90
2022-09-30T17:33:19.765Z,24.90
2022-09-30T17:38:21.810Z,41.20
2022-09-30T17:43:25.864Z,33.20
2022-09-30T17:48:28.048Z,30.00
2022-09-30T17:53:31.097Z,29.90
2022-09-30T17:58:33.527Z,31.70
2022-09-30T18:03:36.669Z,31.40
2022-09-30T18:08:41.995Z,33.80
2022-09-30T18:13:57.865Z,30.70
2022-09-30T18:19:16.122Z,30.90
2022-09-30T18:24:38.493Z,32.90
2022-09-30T18:29:42.558Z,31.90
2022-09-30T18:34:44.754Z,33.90
2022-09-30T18:39:46.991Z,34.70
2022-09-30T18:44:51.144Z,35.50
2022-09-30T18:49:53.225Z,27.80
2022-09-30T18:54:55.357Z,29.30
2022-09-30T18:59:58.100Z,31.00
2022-09-30T19:05:09.023Z,33.10
2022-09-30T19:10:18.572Z,37.50
2022-09-30T19:15:21.977Z,32.00
2022-09-30T19:20:25.617Z,33.40
2022-09-30T19:25:27.737Z,32.50
2022-09-30T19:30:29.759Z,31.80
2022-09-30T19:35:39.512Z,32.10
2022-09-30T19:40:43.736Z,33.50
2022-09-30T19:45:55.169Z,35.10
2022-09-30T19:51:02.628Z,32.40
2022-09-30T19:56:17.697Z,35.80
2022-09-30T20:01:25.390Z,39.50
2022-09-30T20:06:28.451Z,35.90
2022-09-30T20:11:36.194Z,35.70
2022-09-30T20:16:38.947Z,37.10
2022-09-30T20:21:44.109Z,33.10
2022-09-30T20:26:47.282Z,37.30
2022-09-30T20:31:50.500Z,38.80
2022-09-30T20:36:52.461Z,49.60
2022-09-30T20:41:55.988Z,39.50
2022-09-30T20:46:58.386Z,40.80
2022-09-30T20:52:02.868Z,35.10
2022-09-30T20:57:08.158Z,37.80
2022-09-30T21:02:14.033Z,37.80
2022-09-30T21:07:16.042Z,36.80
2022-09-30T21:12:20.285Z,39.40
2022-09-30T21:17:22.176Z,40.30
2022-09-30T21:22:24.158Z,42.20
2022-09-30T21:27:25.872Z,35.80
2022-09-30T21:32:29.016Z,36.80
2022-09-30T21:37:31.004Z,32.10
2022-09-30T21:42:32.763Z,33.70
2022-09-30T21:47:34.427Z,34.00
2022-09-30T21:52:38.175Z,32.30
2022-09-30T21:57:40.205Z,28.10
2022-09-30T22:02:42.058Z,28.90
2022-09-30T22:07:44.125Z,30.00
2022-09-30T22:12:46.431Z,30.70
2022-09-30T22:17:51.322Z,32.10
2022-09-30T22:22:53.438Z,31.80
2022-09-30T22:27:55.465Z,31.70
2022-09-30T22:33:21.978Z,31.80
2022-09-30T22:38:27.943Z,33.30
2022-09-30T22:43:32.137Z,34.60
2022-09-30T22:48:34.970Z,36.10
2022-09-30T22:53:38.806Z,36.40
2022-09-30T22:58:40.743Z,37.40
2022-09-30T23:03:43.461Z,41.70
2022-09-30T23:08:46.280Z,41.30
2022-09-30T23:13:48.048Z,39.80
2022-09-30T23:18:59.595Z,37.70
2022-09-30T23:24:51.327Z,40.80
2022-09-30T23:29:54.989Z,39.40
2022-09-30T23:34:56.749Z,39.40
2022-09-30T23:39:58.643Z,42.50
2022-09-30T23:45:00.444Z,43.30
2022-09-30T23:50:02.326Z,47.00
2022-09-30T23:55:04.733Z,49.70
